Time;durP1;ratioP1;P1;durP2;ratioP2;P2;SDS_P1;SDS_P2;PMS_P1;PMS_P2;Temp;Humidity;BMP_temperature;BMP_pressure;BME280_temperature;BME280_humidity;BME280_pressure;Samples;Min_cycle;Max_cycle;Signal;HPM_P1;HPM_P2
2022/06/11 00:01:40;;;;;;;63.90;33.28;;;12.70;99.90;;;;;;5028595;28;20417;-74
2022/06/11 00:06:43;;;;;;;20.80;13.20;;;12.70;99.90;;;;;;5078996;23;20139;-74
2022/06/11 00:09:11;;;;;;;40.22;16.08;;;12.70;99.90;;;;;;5072846;28;20025;-73
2022/06/11 00:11:37;;;;;;;28.17;16.50;;;12.70;99.90;;;;;;5055241;28;20048;-79
2022/06/11 00:14:04;;;;;;;26.23;15.43;;;12.60;99.90;;;;;;5073095;28;20478;-78
2022/06/11 00:16:30;;;;;;;18.98;13.82;;;12.60;99.90;;;;;;5073090;28;20024;-79
2022/06/11 00:18:57;;;;;;;37.80;21.88;;;12.60;99.90;;;;;;5055229;28;20020;-79
2022/06/11 00:21:26;;;;;;;56.63;31.73;;;12.60;99.90;;;;;;5072726;28;20486;-73
2022/06/11 00:23:52;;;;;;;44.50;25.25;;;12.50;99.90;;;;;;5055061;28;20025;-78
2022/06/11 00:26:20;;;;;;;37.08;22.10;;;12.50;99.90;;;;;;5072841;28;20049;-74
2022/06/11 00:28:46;;;;;;;35.65;22.08;;;12.50;99.90;;;;;;5055252;28;20021;-79
2022/06/11 00:31:12;;;;;;;103.95;54.30;;;12.40;99.90;;;;;;5052271;28;20029;-74
2022/06/11 00:33:38;;;;;;;28.77;17.67;;;12.40;99.90;;;;;;5053112;28;20031;-79
2022/06/11 00:36:06;;;;;;;19.75;13.70;;;12.30;99.90;;;;;;5034755;28;20021;-74
2022/06/11 00:38:33;;;;;;;19.92;15.38;;;12.30;99.90;;;;;;5053169;28;20013;-79
2022/06/11 00:40:59;;;;;;;18.25;13.93;;;12.30;99.90;;;;;;5052852;28;20037;-79
2022/06/11 00:43:27;;;;;;;16.17;12.63;;;12.20;99.90;;;;;;5035340;28;20021;-75
2022/06/11 00:46:26;;;;;;;11.95;10.73;;;12.20;99.90;;;;;;5052611;28;20443;-74
2022/06/11 00:48:52;;;;;;;13.52;11.98;;;12.20;99.90;;;;;;5035032;28;20116;-79
2022/06/11 00:51:22;;;;;;;18.30;15.18;;;12.20;99.90;;;;;;5052387;28;20517;-79
2022/06/11 00:54:02;;;;;;;28.15;17.75;;;12.20;99.90;;;;;;5052938;28;20104;-79
2022/06/11 00:56:38;;;;;;;21.00;14.65;;;12.20;99.90;;;;;;5052552;28;20013;-79
2022/06/11 00:59:09;;;;;;;12.75;10.65;;;12.20;99.90;;;;;;5053137;28;20036;-74
2022/06/11 01:01:34;;;;;;;12.93;9.63;;;12.20;99.90;;;;;;5052860;28;20036;-74
2022/06/11 01:04:03;;;;;;;13.25;9.55;;;12.30;99.90;;;;;;5052734;28;20078;-79
2022/06/11 01:06:32;;;;;;;9.20;8.30;;;12.20;99.90;;;;;;5034473;28;20040;-74
2022/06/11 01:09:17;;;;;;;13.77;10.32;;;12.20;99.90;;;;;;5053045;28;20029;-74
2022/06/11 01:12:06;;;;;;;14.10;10.40;;;12.20;99.90;;;;;;5055507;28;20040;-74
2022/06/11 01:14:43;;;;;;;13.55;11.88;;;12.20;99.90;;;;;;5072719;28;20025;-79
2022/06/11 01:17:50;;;;;;;13.07;11.75;;;12.20;99.90;;;;;;5052861;28;20104;-73
2022/06/11 01:20:47;;;;;;;17.77;11.80;;;12.20;99.90;;;;;;5008129;28;20128;-74
2022/06/11 01:23:18;;;;;;;15.70;12.45;;;12.20;99.90;;;;;;5034675;28;20170;-73
2022/06/11 01:25:47;;;;;;;16.85;12.52;;;12.20;99.90;;;;;;5034138;28;20053;-79
2022/06/11 01:28:26;;;;;;;23.10;15.15;;;12.20;99.90;;;;;;5066004;28;20017;-74
2022/06/11 01:31:04;;;;;;;13.60;11.40;;;12.10;99.90;;;;;;5054127;28;20162;-79
2022/06/11 01:33:40;;;;;;;11.65;10.43;;;12.00;99.90;;;;;;5072908;28;20017;-73
2022/06/11 01:36:18;;;;;;;13.75;10.60;;;12.00;99.90;;;;;;5072231;28;20020;-79
2022/06/11 01:39:10;;;;;;;12.93;9.48;;;12.00;99.90;;;;;;5072537;28;20457;-73
2022/06/11 01:41:46;;;;;;;13.10;11.23;;;12.00;99.90;;;;;;5058761;28;20378;-79
2022/06/11 01:44:18;;;;;;;12.25;9.85;;;12.00;99.90;;;;;;5056279;28;20069;-79
2022/06/11 01:46:47;;;;;;;11.10;10.02;;;12.00;99.90;;;;;;5057635;28;20017;-74
2022/06/11 01:49:25;;;;;;;11.10;10.00;;;12.00;99.90;;;;;;5058013;28;20159;-73
2022/06/11 01:52:13;;;;;;;12.60;10.30;;;12.00;99.90;;;;;;5075532;28;20025;-79
2022/06/11 01:55:00;;;;;;;17.52;12.27;;;12.00;99.90;;;;;;5075939;28;20020;-79
2022/06/11 01:57:38;;;;;;;17.42;12.30;;;11.90;99.90;;;;;;5076003;28;20090;-73
2022/06/11 02:00:33;;;;;;;11.88;10.68;;;11.90;99.90;;;;;;5075160;28;20024;-73
2022/06/11 02:03:11;;;;;;;12.10;10.05;;;11.90;99.90;;;;;;5074683;28;20118;-73
2022/06/11 02:05:44;;;;;;;12.02;10.75;;;11.80;99.90;;;;;;5075052;28;20496;-73
2022/06/11 02:08:12;;;;;;;;;;;11.80;99.90;;;;;;5058155;28;20035;-78
2022/06/11 02:10:53;;;;;;;12.10;10.30;;;11.80;99.90;;;;;;5075202;28;19904;-73
2022/06/11 02:13:44;;;;;;;11.50;9.32;;;11.80;99.90;;;;;;5058895;28;20042;-79
2022/06/11 02:16:33;;;;;;;11.65;10.43;;;11.80;99.90;;;;;;5054980;28;20025;-73
2022/06/11 02:19:02;;;;;;;14.35;10.77;;;11.70;99.90;;;;;;5055645;28;20028;-73
2022/06/11 02:21:32;;;;;;;11.65;10.45;;;11.70;99.90;;;;;;5036710;28;20040;-79
2022/06/11 02:24:09;;;;;;;12.07;10.88;;;11.70;99.90;;;;;;5055431;28;20091;-79
2022/06/11 02:26:39;;;;;;;11.98;10.55;;;11.70;99.90;;;;;;5055297;28;20036;-78
2022/06/11 02:29:07;;;;;;;16.00;12.55;;;11.60;99.90;;;;;;5075593;28;20127;-74
2022/06/11 02:31:39;;;;;;;11.77;9.98;;;11.60;99.90;;;;;;5074836;28;20145;-78
2022/06/11 02:34:07;;;;;;;14.52;10.65;;;11.50;99.90;;;;;;5075196;28;20374;-79
2022/06/11 02:36:52;;;;;;;12.25;9.70;;;11.50;99.90;;;;;;5056611;28;20013;-74
2022/06/11 02:39:18;;;;;;;12.05;9.48;;;11.50;99.90;;;;;;5075215;28;20423;-73
2022/06/11 02:41:46;;;;;;;11.93;9.57;;;11.40;99.90;;;;;;5074352;28;20068;-79
2022/06/11 02:44:11;;;;;;;11.35;9.50;;;11.40;99.90;;;;;;5075014;28;20094;-79
2022/06/11 02:46:46;;;;;;;11.15;9.40;;;11.40;99.90;;;;;;5074040;28;20029;-78
2022/06/11 02:49:33;;;;;;;11.57;9.00;;;11.40;99.90;;;;;;5056421;28;20039;-79
2022/06/11 02:52:05;;;;;;;12.73;10.00;;;11.40;99.90;;;;;;5072180;28;20070;-74
2022/06/11 02:54:31;;;;;;;10.18;9.13;;;11.40;99.90;;;;;;5054579;28;20128;-79
2022/06/11 02:56:59;;;;;;;11.20;10.10;;;11.40;99.90;;;;;;5054184;28;20131;-73
2022/06/11 02:59:26;;;;;;;10.57;9.32;;;11.40;99.90;;;;;;5072463;28;20055;-74
2022/06/11 03:01:53;;;;;;;10.98;9.40;;;11.40;99.90;;;;;;5071829;28;20035;-73
2022/06/11 03:04:21;;;;;;;9.75;8.70;;;11.40;99.90;;;;;;5072676;28;20085;-74
2022/06/11 03:06:47;;;;;;;13.77;10.07;;;11.50;99.90;;;;;;5073727;28;20047;-73
2022/06/11 03:09:17;;;;;;;11.32;10.23;;;11.40;99.90;;;;;;5074395;28;20065;-79
2022/06/11 03:11:44;;;;;;;9.45;8.55;;;11.40;99.90;;;;;;5070085;28;20531;-73
2022/06/11 03:14:10;;;;;;;7.32;6.57;;;11.30;99.90;;;;;;5054379;28;20565;-79
2022/06/11 03:16:37;;;;;;;8.85;7.90;;;11.30;99.90;;;;;;5053940;28;20031;-79
2022/06/11 03:19:04;;;;;;;8.32;7.53;;;11.30;99.90;;;;;;5036441;28;20025;-79
2022/06/11 03:21:30;;;;;;;7.70;6.90;;;11.30;99.90;;;;;;5054186;28;20033;-73
2022/06/11 03:23:56;;;;;;;9.52;7.38;;;11.40;99.90;;;;;;5036318;28;20036;-74
2022/06/11 03:26:21;;;;;;;8.20;7.40;;;11.50;99.90;;;;;;5053624;28;20028;-73
2022/06/11 03:28:47;;;;;;;7.50;6.80;;;11.70;99.90;;;;;;5073004;28;20025;-73
2022/06/11 03:31:14;;;;;;;8.43;7.53;;;11.80;99.90;;;;;;5055538;28;20025;-73
2022/06/11 03:33:40;;;;;;;10.38;7.93;;;12.10;99.90;;;;;;5074011;28;20428;-73
2022/06/11 03:36:09;;;;;;;7.90;7.10;;;12.30;99.90;;;;;;5055553;28;20032;-73
2022/06/11 03:38:37;;;;;;;10.57;7.28;;;12.50;99.90;;;;;;5073966;28;20078;-79
2022/06/11 03:41:04;;;;;;;6.88;6.25;;;12.70;99.90;;;;;;5044055;28;20060;-74
2022/06/11 03:43:29;;;;;;;8.60;7.70;;;12.90;99.90;;;;;;5053934;28;20025;-73
2022/06/11 03:45:55;;;;;;;6.65;6.05;;;13.10;99.90;;;;;;5053338;28;20393;-73
2022/06/11 03:48:22;;;;;;;9.60;7.15;;;13.30;99.90;;;;;;5053763;28;20544;-79
2022/06/11 03:50:48;;;;;;;8.40;7.60;;;13.40;99.90;;;;;;5053166;28;20033;-73
2022/06/11 03:53:14;;;;;;;8.10;7.30;;;13.60;99.90;;;;;;5053870;28;20028;-74
2022/06/11 03:55:42;;;;;;;8.32;6.22;;;13.80;99.90;;;;;;5035233;28;20067;-73
2022/06/11 03:58:09;;;;;;;6.53;5.93;;;14.00;99.90;;;;;;5053558;28;20074;-73
2022/06/11 04:03:21;;;;;;;7.20;6.50;;;14.20;99.90;;;;;;5053834;28;20548;-73
2022/06/11 04:05:48;;;;;;;7.28;6.57;;;14.40;99.90;;;;;;5052633;28;20057;-74
2022/06/11 04:08:16;;;;;;;9.23;7.38;;;14.30;99.90;;;;;;5053287;28;20032;-80
2022/06/11 04:10:42;;;;;;;8.05;7.25;;;14.50;99.90;;;;;;5053024;28;20056;-73
2022/06/11 04:13:09;;;;;;;8.50;7.63;;;14.60;99.90;;;;;;5069211;28;20097;-80
2022/06/11 04:15:36;;;;;;;10.02;7.15;;;14.70;99.90;;;;;;5072937;28;20162;-80
2022/06/11 04:18:03;;;;;;;7.57;6.88;;;14.80;99.90;;;;;;5073304;28;20023;-79
2022/06/11 04:20:29;;;;;;;7.60;6.90;;;15.00;99.90;;;;;;5072780;28;20033;-80
2022/06/11 04:22:55;;;;;;;8.75;7.95;;;15.20;99.90;;;;;;5073223;28;20033;-80
2022/06/11 04:25:21;;;;;;;7.85;7.15;;;15.30;99.90;;;;;;5072906;28;20028;-73
2022/06/11 04:27:53;;;;;;;7.93;7.05;;;15.40;99.90;;;;;;5062179;28;20040;-80
2022/06/11 04:30:24;;;;;;;9.30;8.50;;;15.50;99.90;;;;;;5034980;28;20013;-73
2022/06/11 04:32:49;;;;;;;8.68;7.88;;;15.60;99.90;;;;;;5053188;28;20025;-80
2022/06/11 04:35:15;;;;;;;8.18;7.47;;;15.70;99.90;;;;;;5052513;28;20481;-73
2022/06/11 04:37:41;;;;;;;8.98;8.07;;;15.80;99.90;;;;;;5055638;28;20035;-74
2022/06/11 04:40:07;;;;;;;8.50;7.80;;;15.90;99.90;;;;;;5070072;28;20029;-81
2022/06/11 04:42:33;;;;;;;10.32;7.40;;;16.10;99.90;;;;;;5066047;28;20542;-74
2022/06/11 04:45:00;;;;;;;9.25;8.25;;;16.20;99.90;;;;;;5061857;28;20029;-80
2022/06/11 04:47:28;;;;;;;7.68;6.88;;;16.30;99.90;;;;;;5051951;28;20123;-80
2022/06/11 04:49:56;;;;;;;9.13;8.20;;;16.40;99.90;;;;;;5061878;28;20107;-80
2022/06/11 04:52:23;;;;;;;7.35;6.35;;;16.50;99.90;;;;;;5072670;28;20443;-79
2022/06/11 04:54:50;;;;;;;7.90;7.20;;;16.60;99.90;;;;;;5062733;28;20052;-79
2022/06/11 04:57:16;;;;;;;8.98;8.05;;;16.70;99.90;;;;;;5052672;28;20029;-80
2022/06/11 04:59:42;;;;;;;7.32;6.68;;;16.70;99.90;;;;;;5052214;28;20029;-80
2022/06/11 05:02:08;;;;;;;7.65;6.93;;;16.80;99.90;;;;;;5052642;28;20086;-74
2022/06/11 05:04:34;;;;;;;6.68;5.95;;;16.90;99.90;;;;;;5059808;28;20032;-73
2022/06/11 05:06:59;;;;;;;6.03;5.53;;;17.00;99.90;;;;;;5072136;28;20407;-73
2022/06/11 05:09:28;;;;;;;5.97;5.47;;;17.10;99.90;;;;;;5072791;28;20033;-78
2022/06/11 05:11:54;;;;;;;4.47;4.07;;;17.10;99.90;;;;;;5047448;28;20043;-73
2022/06/11 05:14:21;;;;;;;4.15;3.35;;;17.20;99.90;;;;;;5072759;28;20056;-79
2022/06/11 05:16:47;;;;;;;3.80;3.47;;;17.30;99.90;;;;;;5072304;28;20027;-73
2022/06/11 05:19:15;;;;;;;5.60;4.10;;;17.40;99.90;;;;;;5074535;28;20099;-73
2022/06/11 05:21:41;;;;;;;3.88;3.28;;;17.50;99.90;;;;;;5073199;28;20028;-80
2022/06/11 05:24:08;;;;;;;3.55;3.25;;;17.50;99.90;;;;;;5055118;28;20021;-80
2022/06/11 05:26:42;;;;;;;3.38;3.08;;;17.60;99.90;;;;;;5047932;28;20066;-79
2022/06/11 05:29:10;;;;;;;3.67;3.22;;;17.60;99.90;;;;;;5065958;28;20031;-79
2022/06/11 05:31:36;;;;;;;4.68;3.30;;;17.70;99.90;;;;;;5075347;28;20531;-78
2022/06/11 05:34:02;;;;;;;4.80;2.50;;;17.80;98.00;;;;;;5076078;28;20097;-73
2022/06/11 05:36:28;;;;;;;2.92;2.47;;;17.70;88.20;;;;;;5064434;28;20123;-73
2022/06/11 05:38:53;;;;;;;2.60;2.25;;;17.80;92.50;;;;;;5056852;28;20028;-77
2022/06/11 05:41:19;;;;;;;3.15;2.00;;;17.80;91.30;;;;;;5050526;28;20021;-73
2022/06/11 05:43:45;;;;;;;2.78;2.13;;;17.80;82.90;;;;;;5065659;28;20402;-78
2022/06/11 05:46:18;;;;;;;4.78;2.38;;;17.80;86.80;;;;;;5054624;28;20032;-73
2022/06/11 05:48:52;;;;;;;3.03;2.10;;;17.80;86.40;;;;;;5066143;28;20070;-78
2022/06/11 05:51:30;;;;;;;2.97;2.45;;;17.90;86.90;;;;;;5055667;28;20112;-78
2022/06/11 05:53:57;;;;;;;2.45;1.85;;;17.80;79.40;;;;;;5074652;28;20021;-78
2022/06/11 05:56:24;;;;;;;3.70;2.20;;;17.70;81.30;;;;;;5055980;28;20044;-74
2022/06/11 05:58:54;;;;;;;2.58;1.90;;;17.70;80.40;;;;;;5074656;28;20052;-73
2022/06/11 06:01:24;;;;;;;1.85;1.75;;;17.80;80.80;;;;;;5052064;28;20132;-73
2022/06/11 06:03:50;;;;;;;2.42;1.98;;;17.80;79.80;;;;;;5061356;28;20029;-73
2022/06/11 06:06:16;;;;;;;4.15;2.45;;;17.90;81.00;;;;;;5070393;28;20102;-73
2022/06/11 06:08:41;;;;;;;4.43;1.92;;;17.90;79.70;;;;;;5056684;28;20036;-73
2022/06/11 06:11:07;;;;;;;1.85;1.75;;;17.90;79.40;;;;;;5066301;28;20048;-74
2022/06/11 06:13:48;;;;;;;3.38;2.17;;;18.10;80.30;;;;;;5068131;28;20017;-79
2022/06/11 06:16:20;;;;;;;1.73;1.63;;;18.20;77.50;;;;;;5073203;28;20047;-79
2022/06/11 06:18:47;;;;;;;2.28;2.08;;;18.30;77.20;;;;;;5073356;28;20025;-79
2022/06/11 06:21:14;;;;;;;2.08;1.35;;;18.40;76.50;;;;;;5061450;28;20053;-79
2022/06/11 06:23:39;;;;;;;3.05;1.80;;;18.30;73.90;;;;;;5069972;28;20029;-79
2022/06/11 06:26:05;;;;;;;1.70;1.60;;;18.50;72.90;;;;;;5073872;28;20074;-78
2022/06/11 06:28:32;;;;;;;2.10;1.90;;;18.60;71.50;;;;;;5060801;28;20028;-69
2022/06/11 06:30:59;;;;;;;4.50;2.00;;;18.70;72.20;;;;;;5073458;28;20021;-69
2022/06/11 06:33:26;;;;;;;4.28;3.88;;;18.70;70.10;;;;;;5072456;28;20094;-70
2022/06/11 06:35:52;;;;;;;2.05;1.77;;;18.90;70.80;;;;;;5055054;28;20378;-69
2022/06/11 06:38:18;;;;;;;2.17;1.70;;;18.80;67.70;;;;;;5072308;28;20025;-70
2022/06/11 06:40:44;;;;;;;2.92;1.75;;;19.00;67.40;;;;;;5073711;28;20086;-73
2022/06/11 06:43:10;;;;;;;1.58;1.40;;;18.80;67.80;;;;;;5073700;28;20032;-74
2022/06/11 06:45:35;;;;;;;1.55;1.45;;;18.90;67.50;;;;;;5072686;28;20497;-70
2022/06/11 06:48:02;;;;;;;2.85;2.00;;;18.90;68.70;;;;;;5072569;28;20036;-70
2022/06/11 06:50:28;;;;;;;2.05;1.65;;;18.90;68.50;;;;;;5069636;28;20050;-71
2022/06/11 06:52:55;;;;;;;3.45;1.90;;;18.70;69.30;;;;;;5071919;28;20025;-71
2022/06/11 06:55:22;;;;;;;2.50;2.30;;;18.70;71.00;;;;;;5073319;28;20029;-74
2022/06/11 06:57:49;;;;;;;2.50;1.80;;;18.70;70.20;;;;;;5073142;28;20032;-75
2022/06/11 07:00:17;;;;;;;2.92;2.03;;;19.00;68.30;;;;;;5071527;28;20047;-75
2022/06/11 07:02:45;;;;;;;4.45;1.70;;;19.30;67.90;;;;;;5073210;28;20056;-71
2022/06/11 07:05:12;;;;;;;2.33;1.67;;;19.30;65.00;;;;;;5062064;28;20052;-71
2022/06/11 07:07:39;;;;;;;2.08;1.60;;;19.10;65.50;;;;;;5072888;28;20041;-69
2022/06/11 07:10:10;;;;;;;1.92;1.70;;;18.80;65.60;;;;;;5072986;28;20142;-69
2022/06/11 07:12:38;;;;;;;1.70;1.60;;;18.70;67.10;;;;;;5054949;28;20028;-70
2022/06/11 07:15:04;;;;;;;1.65;1.50;;;18.50;65.50;;;;;;5055160;28;20390;-70
2022/06/11 07:17:53;;;;;;;2.10;1.50;;;18.50;65.00;;;;;;5054336;28;20390;-70
2022/06/11 07:20:25;;;;;;;1.90;1.50;;;18.80;65.20;;;;;;5071315;28;20123;-70
2022/06/11 07:22:55;;;;;;;1.60;1.40;;;19.10;64.20;;;;;;5072755;28;20033;-73
2022/06/11 07:25:21;;;;;;;4.32;2.05;;;19.30;64.00;;;;;;5072507;28;20035;-74
2022/06/11 07:28:03;;;;;;;2.13;1.13;;;19.40;65.30;;;;;;5044534;28;20025;-74
2022/06/11 07:30:32;;;;;;;1.70;1.60;;;19.20;63.70;;;;;;5072747;28;20020;-73
2022/06/11 07:33:05;;;;;;;2.15;1.48;;;19.20;64.00;;;;;;5072319;28;20036;-71
2022/06/11 07:35:32;;;;;;;1.38;1.27;;;19.40;65.60;;;;;;5072408;28;20025;-71
2022/06/11 07:37:57;;;;;;;2.35;1.52;;;19.60;62.30;;;;;;5072437;28;20580;-71
2022/06/11 07:40:24;;;;;;;1.75;1.50;;;19.80;65.30;;;;;;5066519;28;20048;-71
2022/06/11 07:42:50;;;;;;;1.65;1.40;;;19.70;62.20;;;;;;5052931;28;20498;-71
2022/06/11 07:45:16;;;;;;;1.63;1.52;;;19.90;62.70;;;;;;5071679;28;20048;-71
2022/06/11 07:47:53;;;;;;;1.42;1.20;;;20.10;63.70;;;;;;5072044;28;20486;-70
2022/06/11 07:50:26;;;;;;;1.58;1.10;;;20.10;62.90;;;;;;5069404;28;20385;-69
2022/06/11 07:52:52;;;;;;;0.90;0.90;;;20.50;62.20;;;;;;5043333;28;20036;-69
2022/06/11 07:55:19;;;;;;;1.75;1.08;;;20.50;60.00;;;;;;5071936;28;20025;-70
2022/06/11 07:57:44;;;;;;;1.80;1.40;;;20.40;60.30;;;;;;5071972;28;20040;-74
2022/06/11 08:00:13;;;;;;;1.30;1.20;;;20.20;59.50;;;;;;5065577;28;20044;-74
2022/06/11 08:02:39;;;;;;;1.83;1.25;;;20.20;59.70;;;;;;5068895;28;20039;-74
2022/06/11 08:05:06;;;;;;;3.17;1.30;;;20.30;60.10;;;;;;5050351;28;20084;-69
2022/06/11 08:07:41;;;;;;;1.33;1.02;;;20.20;59.20;;;;;;5051095;28;20074;-69
2022/06/11 08:10:08;;;;;;;1.85;1.17;;;19.80;58.70;;;;;;5043009;28;20356;-75
2022/06/11 08:12:34;;;;;;;4.28;1.33;;;19.80;58.20;;;;;;5049350;28;20052;-75
2022/06/11 08:14:59;;;;;;;1.20;1.00;;;19.80;59.40;;;;;;5032219;28;20025;-69
2022/06/11 08:17:30;;;;;;;1.30;1.20;;;19.60;59.00;;;;;;5033648;28;20383;-74
2022/06/11 08:19:56;;;;;;;1.80;1.02;;;19.70;60.10;;;;;;5042716;28;20155;-74
2022/06/11 08:22:22;;;;;;;2.05;1.05;;;20.10;57.70;;;;;;5051770;28;20021;-70
2022/06/11 08:24:49;;;;;;;1.80;1.30;;;20.00;58.80;;;;;;5049631;28;20585;-74
2022/06/11 08:27:15;;;;;;;0.95;0.95;;;20.00;57.60;;;;;;5043636;28;20056;-70
2022/06/11 08:29:41;;;;;;;2.50;1.10;;;20.30;57.80;;;;;;5032345;28;20092;-70
2022/06/11 08:32:07;;;;;;;1.40;1.25;;;19.90;57.10;;;;;;5033315;28;20056;-74
2022/06/11 08:34:42;;;;;;;1.85;1.42;;;19.70;59.30;;;;;;5033341;28;20087;-74
2022/06/11 08:37:08;;;;;;;1.50;1.40;;;19.60;58.60;;;;;;5031271;28;20026;-74
2022/06/11 08:39:35;;;;;;;1.42;1.20;;;20.00;58.90;;;;;;5029892;28;20025;-74
2022/06/11 08:42:01;;;;;;;0.80;0.80;;;20.30;58.40;;;;;;5030515;28;20041;-71
2022/06/11 08:44:31;;;;;;;2.05;1.10;;;20.70;54.70;;;;;;5031279;28;20025;-74
2022/06/11 08:47:00;;;;;;;1.20;1.10;;;20.80;55.30;;;;;;5049588;28;20033;-70
2022/06/11 08:49:41;;;;;;;1.35;1.02;;;20.60;53.30;;;;;;5043673;28;20033;-74
2022/06/11 08:52:18;;;;;;;2.20;0.98;;;20.50;54.00;;;;;;5031271;28;20029;-74
2022/06/11 08:54:45;;;;;;;1.80;0.93;;;20.80;55.00;;;;;;5034965;28;20414;-70
2022/06/11 08:57:20;;;;;;;1.10;1.10;;;20.90;55.30;;;;;;5037193;28;20021;-74
2022/06/11 09:00:10;;;;;;;2.17;1.13;;;20.90;54.90;;;;;;5036646;28;20033;-71
2022/06/11 09:03:03;;;;;;;0.80;0.80;;;21.20;54.90;;;;;;5035925;28;20022;-70
2022/06/11 09:05:38;;;;;;;1.00;0.90;;;21.10;53.30;;;;;;5045994;28;20383;-70
2022/06/11 09:08:15;;;;;;;0.95;0.88;;;20.90;52.40;;;;;;5057138;28;20021;-75
2022/06/11 09:11:03;;;;;;;3.30;1.10;;;21.10;53.80;;;;;;5056401;28;20083;-74
2022/06/11 09:13:47;;;;;;;1.67;1.58;;;21.20;54.60;;;;;;5056970;28;20027;-71
2022/06/11 09:16:31;;;;;;;2.60;0.95;;;21.30;54.30;;;;;;5056178;28;20430;-74
2022/06/11 09:19:18;;;;;;;1.63;1.10;;;21.60;55.10;;;;;;5056931;28;20036;-70
2022/06/11 09:22:21;;;;;;;2.50;1.38;;;21.80;55.10;;;;;;5038302;28;20044;-74
2022/06/11 09:25:04;;;;;;;1.20;1.10;;;21.20;54.70;;;;;;5056134;28;20060;-74
2022/06/11 09:27:29;;;;;;;;;;;21.10;54.50;;;;;;5067112;28;20016;-70
2022/06/11 09:30:09;;;;;;;1.70;1.00;;;21.10;54.70;;;;;;5076031;28;19908;-74
2022/06/11 09:32:47;;;;;;;1.05;1.05;;;20.90;53.60;;;;;;5076554;28;20027;-70
2022/06/11 09:35:35;;;;;;;1.45;1.40;;;20.80;52.90;;;;;;5075985;28;20428;-70
2022/06/11 09:38:32;;;;;;;1.60;1.38;;;21.10;55.50;;;;;;5076445;28;20100;-70
2022/06/11 09:41:22;;;;;;;1.70;1.60;;;21.20;55.80;;;;;;5052528;28;20051;-74
2022/06/11 09:43:59;;;;;;;1.60;1.30;;;21.50;56.70;;;;;;5076662;28;20020;-74
2022/06/11 09:46:31;;;;;;;1.67;1.58;;;21.70;55.20;;;;;;5075927;28;20028;-74
2022/06/11 09:49:18;;;;;;;1.30;1.20;;;21.20;54.90;;;;;;5072953;28;20068;-70
2022/06/11 09:52:26;;;;;;;1.50;1.40;;;21.10;54.00;;;;;;5072751;28;20024;-70
2022/06/11 09:54:53;;;;;;;1.50;1.40;;;21.00;54.70;;;;;;4955399;28;20015;-70
2022/06/11 09:57:56;;;;;;;4.43;1.98;;;21.20;54.20;;;;;;5036301;28;20158;-74
2022/06/11 10:00:22;;;;;;;;;;;21.10;55.60;;;;;;5038048;28;20037;-74
2022/06/11 10:05:55;;;;;;;2.25;1.92;;;21.70;57.40;;;;;;5054322;28;20048;-70
2022/06/11 10:08:20;;;;;;;1.50;1.38;;;21.60;55.00;;;;;;5055722;28;20088;-70
2022/06/11 10:10:47;;;;;;;4.22;1.38;;;21.50;54.60;;;;;;5037432;28;20061;-71
2022/06/11 10:14:28;;;;;;;1.90;1.45;;;21.60;54.60;;;;;;5055419;28;20447;-74
2022/06/11 10:16:52;;;;;;;1.30;1.20;;;21.60;54.10;;;;;;5054763;28;20031;-74
2022/06/11 10:19:30;;;;;;;1.23;1.13;;;21.50;51.80;;;;;;5037656;28;20021;-70
2022/06/11 10:22:04;;;;;;;1.45;1.35;;;21.70;50.90;;;;;;5037031;28;20048;-74
2022/06/11 10:24:34;;;;;;;1.63;1.52;;;21.90;53.00;;;;;;5055422;28;20111;-74
2022/06/11 10:27:13;;;;;;;2.33;1.38;;;22.10;53.50;;;;;;5043819;28;20009;-74
2022/06/11 10:29:50;;;;;;;3.15;1.67;;;22.20;53.50;;;;;;5075125;28;20099;-74
2022/06/11 10:32:39;;;;;;;2.70;1.30;;;22.20;52.50;;;;;;5057539;28;20398;-74
2022/06/11 10:35:17;;;;;;;1.95;1.50;;;22.50;52.40;;;;;;5074914;28;20028;-74
2022/06/11 10:37:53;;;;;;;1.45;1.35;;;22.10;50.80;;;;;;5075277;28;20020;-74
2022/06/11 10:40:37;;;;;;;1.70;1.50;;;22.40;52.00;;;;;;5074822;28;20509;-74
2022/06/11 10:43:16;;;;;;;1.33;1.25;;;22.40;51.60;;;;;;5075308;28;20021;-71
2022/06/11 10:45:45;;;;;;;2.67;1.95;;;22.20;53.10;;;;;;5074641;28;20027;-70
2022/06/11 10:48:17;;;;;;;1.67;1.58;;;22.20;54.20;;;;;;5074973;28;20024;-74
2022/06/11 10:50:43;;;;;;;2.25;1.30;;;22.50;54.00;;;;;;5038531;28;20406;-70
2022/06/11 10:53:38;;;;;;;1.65;1.50;;;22.60;54.00;;;;;;5054872;28;20437;-72
2022/06/11 10:56:12;;;;;;;1.50;1.40;;;22.20;54.20;;;;;;5033022;28;20045;-70
2022/06/11 10:58:40;;;;;;;1.75;1.38;;;22.40;53.80;;;;;;5054792;28;20474;-70
2022/06/11 11:01:38;;;;;;;1.55;1.30;;;22.10;51.80;;;;;;5054285;28;20029;-70
2022/06/11 11:04:17;;;;;;;1.33;1.23;;;22.10;52.00;;;;;;5036879;28;20116;-69
2022/06/11 11:06:44;;;;;;;2.42;1.30;;;22.10;52.20;;;;;;5054203;28;20045;-70
2022/06/11 11:09:10;;;;;;;2.08;1.70;;;22.20;52.70;;;;;;5054250;28;20036;-70
2022/06/11 11:11:52;;;;;;;2.88;1.75;;;22.40;53.80;;;;;;5054735;28;20475;-71
2022/06/11 11:14:26;;;;;;;1.92;1.30;;;22.60;52.40;;;;;;5054681;28;20017;-71
2022/06/11 11:16:52;;;;;;;2.20;1.15;;;22.50;50.20;;;;;;5054023;28;20071;-74
2022/06/11 11:19:33;;;;;;;2.22;1.50;;;22.70;50.60;;;;;;5036487;28;20040;-74
2022/06/11 11:22:07;;;;;;;1.73;1.52;;;22.50;51.00;;;;;;5054055;28;20025;-71
2022/06/11 11:25:00;;;;;;;1.48;1.40;;;22.40;52.40;;;;;;5054196;28;20027;-71
2022/06/11 11:27:34;;;;;;;1.30;1.20;;;22.30;52.20;;;;;;5042294;28;20106;-70
2022/06/11 11:30:22;;;;;;;1.27;1.17;;;22.50;51.50;;;;;;5073868;28;20021;-70
2022/06/11 11:32:48;;;;;;;1.45;1.27;;;22.40;51.30;;;;;;5056271;28;20020;-74
2022/06/11 11:35:22;;;;;;;2.33;1.30;;;22.30;49.50;;;;;;5055723;28;20012;-70
2022/06/11 11:38:11;;;;;;;3.58;1.67;;;22.50;50.40;;;;;;5073988;28;20068;-70
2022/06/11 11:40:56;;;;;;;1.45;1.38;;;22.50;48.60;;;;;;5073546;28;20041;-70
2022/06/11 11:43:24;;;;;;;1.55;1.30;;;22.40;49.40;;;;;;5056173;28;20025;-74
2022/06/11 11:46:02;;;;;;;2.13;1.30;;;22.60;50.90;;;;;;5073546;28;20021;-74
2022/06/11 11:48:30;;;;;;;1.60;1.50;;;22.70;51.00;;;;;;5073850;28;20412;-70
2022/06/11 11:51:03;;;;;;;1.42;1.33;;;22.50;51.70;;;;;;5035422;28;20433;-70
2022/06/11 11:53:35;;;;;;;3.88;1.50;;;22.60;51.90;;;;;;5053725;28;20025;-70
2022/06/11 11:56:19;;;;;;;2.28;1.50;;;22.60;52.90;;;;;;5064408;28;20111;-74
2022/06/11 11:58:50;;;;;;;2.05;1.40;;;22.50;53.30;;;;;;5073805;28;20081;-74
2022/06/11 12:01:17;;;;;;;1.77;1.35;;;22.70;51.90;;;;;;5073264;28;20036;-70
2022/06/11 12:03:47;;;;;;;1.95;1.77;;;22.90;51.80;;;;;;5073495;28;20092;-71
2022/06/11 12:06:17;;;;;;;1.80;1.30;;;22.60;49.00;;;;;;5055354;28;20053;-74
2022/06/11 12:08:53;;;;;;;2.80;1.15;;;22.70;48.80;;;;;;5073560;28;20017;-70
2022/06/11 12:11:27;;;;;;;2.10;1.40;;;22.60;49.20;;;;;;5055217;28;20063;-74
2022/06/11 12:14:13;;;;;;;1.92;1.27;;;22.90;50.10;;;;;;5073525;28;20032;-74
2022/06/11 12:16:52;;;;;;;2.42;1.50;;;23.20;49.70;;;;;;5073048;28;20025;-75
2022/06/11 12:19:20;;;;;;;1.98;1.52;;;23.50;48.70;;;;;;5055528;28;20466;-70
2022/06/11 12:22:10;;;;;;;3.63;2.70;;;23.40;48.00;;;;;;5054823;28;20517;-75
2022/06/11 12:24:42;;;;;;;2.88;1.40;;;23.30;48.80;;;;;;5073307;28;20061;-74
2022/06/11 12:27:27;;;;;;;1.95;1.40;;;23.10;50.20;;;;;;5064767;28;20028;-75
2022/06/11 12:29:57;;;;;;;2.58;1.60;;;23.00;50.50;;;;;;5034790;28;20363;-74
2022/06/11 12:32:26;;;;;;;1.60;1.50;;;23.10;51.10;;;;;;5053543;28;20521;-74
2022/06/11 12:34:53;;;;;;;2.33;1.40;;;22.90;50.70;;;;;;5052575;28;20029;-70
2022/06/11 12:37:55;;;;;;;2.58;1.58;;;23.10;51.00;;;;;;5035565;28;20513;-70
2022/06/11 12:40:40;;;;;;;4.15;1.67;;;23.20;50.40;;;;;;5052555;28;20029;-70
2022/06/11 12:43:41;;;;;;;2.30;1.80;;;23.10;52.00;;;;;;5057232;28;20032;-71
2022/06/11 12:46:17;;;;;;;2.58;1.38;;;23.40;50.60;;;;;;5046233;28;20028;-71
2022/06/11 12:48:54;;;;;;;1.58;1.40;;;23.50;50.60;;;;;;5069275;28;20036;-70
2022/06/11 12:51:47;;;;;;;3.08;1.80;;;23.50;50.40;;;;;;5066996;28;20021;-75
2022/06/11 12:54:33;;;;;;;3.25;1.65;;;23.50;50.30;;;;;;5053171;28;20036;-71
2022/06/11 12:57:18;;;;;;;1.55;1.45;;;23.50;50.80;;;;;;5042522;28;20035;-75
2022/06/11 13:00:15;;;;;;;2.83;1.45;;;23.40;50.00;;;;;;5071217;28;20040;-73
2022/06/11 13:02:57;;;;;;;2.22;1.63;;;23.60;49.40;;;;;;5054018;28;20382;-74
2022/06/11 13:05:35;;;;;;;5.40;1.60;;;23.50;50.00;;;;;;5070677;28;20108;-73
2022/06/11 13:08:03;;;;;;;1.88;1.77;;;23.50;50.70;;;;;;5071887;28;20017;-71
2022/06/11 13:10:50;;;;;;;3.45;1.48;;;23.70;49.70;;;;;;5070975;28;20039;-74
2022/06/11 13:13:53;;;;;;;1.30;1.20;;;23.60;47.70;;;;;;5050319;28;20032;-70
2022/06/11 13:16:35;;;;;;;1.30;1.20;;;23.70;46.30;;;;;;5051994;28;20028;-74
2022/06/11 13:19:03;;;;;;;2.85;1.50;;;23.60;45.40;;;;;;5071046;28;20367;-74
2022/06/11 13:21:58;;;;;;;3.08;1.40;;;23.70;45.90;;;;;;5070895;28;20044;-70